Time;durP1;ratioP1;P1;durP2;ratioP2;P2;SDS_P1;SDS_P2;PMS_P1;PMS_P2;Temp;Humidity;BMP_temperature;BMP_pressure;BME280_temperature;BME280_humidity;BME280_pressure;Samples;Min_cycle;Max_cycle;Signal;HPM_P1;HPM_P2
2022/11/27 00:01:48;;;;;;;;;10.00;10.00;;;;;8.91;69.89;102134.63;6185002;23;45369;-79
2022/11/27 00:04:14;;;;;;;;;13.50;10.75;;;;;8.87;69.89;102125.78;6158593;23;46009;-80
2022/11/27 00:06:39;;;;;;;;;11.25;10.25;;;;;8.83;69.77;102116.06;6158351;23;45254;-80
2022/11/27 00:09:09;;;;;;;;;11.50;10.50;;;;;8.93;69.78;102140.81;6182953;23;45635;-80
2022/11/27 00:11:38;;;;;;;;;12.75;11.25;;;;;8.81;69.21;102102.00;6183630;23;46453;-80
2022/11/27 00:14:03;;;;;;;;;12.00;11.00;;;;;8.89;69.66;102120.56;6158319;23;45548;-80
2022/11/27 00:16:29;;;;;;;;;15.25;12.00;;;;;8.90;69.54;102128.50;6158117;23;45545;-79
2022/11/27 00:18:55;;;;;;;;;14.50;14.50;;;;;8.89;69.45;102121.44;6156139;23;45377;-79
2022/11/27 00:21:23;;;;;;;;;13.25;13.25;;;;;8.91;69.68;102109.25;6185181;23;46214;-79
2022/11/27 00:23:51;;;;;;;;;11.25;11.25;;;;;8.87;69.64;102096.88;6159105;23;45535;-80
2022/11/27 00:26:17;;;;;;;;;10.25;8.50;;;;;8.91;69.66;102095.25;6158169;23;45358;-80
2022/11/27 00:28:42;;;;;;;;;15.75;13.00;;;;;8.90;69.98;102085.56;6157211;23;45317;-76
2022/11/27 00:31:14;;;;;;;;;10.50;10.50;;;;;8.90;69.68;102077.69;6156930;23;47400;-76
2022/11/27 00:33:39;;;;;;;;;15.00;10.75;;;;;8.95;69.51;102103.22;6159375;23;45245;-76
2022/11/27 00:36:09;;;;;;;;;16.00;14.00;;;;;8.91;69.49;102092.63;6186729;23;45358;-76
2022/11/27 00:38:35;;;;;;;;;14.75;13.00;;;;;8.83;69.54;102081.91;6185149;23;45284;-75
2022/11/27 00:41:13;;;;;;;;;12.00;10.00;;;;;8.82;69.68;102081.03;6186984;23;45287;-76
2022/11/27 00:43:39;;;;;;;;;15.00;12.50;;;;;8.82;69.51;102072.25;6186508;23;45359;-76
2022/11/27 00:46:05;;;;;;;;;12.00;11.00;;;;;8.73;69.23;102066.78;6182911;23;45571;-76
2022/11/27 00:48:31;;;;;;;;;11.75;10.75;;;;;8.77;69.59;102072.16;6156989;23;45688;-76
2022/11/27 00:51:05;;;;;;;;;11.25;11.25;;;;;8.79;69.58;102077.44;6157345;23;47407;-76
2022/11/27 00:53:31;;;;;;;;;9.25;9.00;;;;;8.78;69.41;102083.53;6158113;23;45278;-76
2022/11/27 00:55:56;;;;;;;;;11.75;9.75;;;;;8.75;69.73;102065.97;6185162;23;45407;-75
2022/11/27 00:58:23;;;;;;;;;11.50;9.50;;;;;8.88;69.79;102090.81;6159039;23;45572;-76
2022/11/27 01:01:01;;;;;;;;;11.75;11.25;;;;;8.78;69.85;102050.28;6186864;23;46190;-76
2022/11/27 01:03:28;;;;;;;;;11.00;11.00;;;;;8.82;69.62;102060.03;6186847;23;45342;-76
2022/11/27 01:05:56;;;;;;;;;10.00;9.00;;;;;8.80;69.88;102045.97;6159932;23;45379;-76
2022/11/27 01:08:22;;;;;;;;;10.00;9.00;;;;;8.76;69.71;102038.84;6186711;23;46013;-76
2022/11/27 01:10:53;;;;;;;;;13.25;13.00;;;;;8.79;69.65;102032.78;6190925;23;46284;-75
2022/11/27 01:13:21;;;;;;;;;12.75;10.00;;;;;8.73;69.64;102030.91;6160094;23;45430;-75
2022/11/27 01:16:05;;;;;;;;;11.25;10.00;;;;;8.82;69.80;102043.34;6186883;23;45106;-75
2022/11/27 01:18:31;;;;;;;;;12.50;11.75;;;;;8.78;69.80;102039.78;6186671;23;45292;-75
2022/11/27 01:20:56;;;;;;;;;10.50;10.50;;;;;8.77;69.54;102030.16;6186319;23;46528;-75
2022/11/27 01:23:25;;;;;;;;;14.00;10.75;;;;;8.77;69.79;102045.00;6160023;23;46127;-75
2022/11/27 01:25:52;;;;;;;;;11.50;10.25;;;;;8.77;69.56;102060.78;6186709;23;45178;-75
2022/11/27 01:28:18;;;;;;;;;10.75;9.75;;;;;8.79;69.83;102059.03;6158930;23;45454;-75
2022/11/27 01:30:44;;;;;;;;;11.25;10.50;;;;;8.83;69.70;102071.41;6186741;23;46420;-75
2022/11/27 01:33:09;;;;;;;;;11.75;11.75;;;;;8.79;69.99;102048.53;6186606;23;45272;-75
2022/11/27 01:35:35;;;;;;;;;12.00;12.00;;;;;8.86;69.82;102060.97;6186829;23;45278;-75
2022/11/27 01:38:00;;;;;;;;;13.25;11.25;;;;;8.90;69.91;102060.22;6186549;23;45336;-75
2022/11/27 01:40:26;;;;;;;;;13.00;10.75;;;;;8.79;69.63;102038.94;6186905;23;45787;-75
2022/11/27 01:42:51;;;;;;;;;13.25;11.00;;;;;8.81;69.62;102033.72;6186408;23;45173;-75
2022/11/27 01:45:18;;;;;;;;;11.25;10.25;;;;;8.90;69.72;102054.97;6187485;23;45154;-76
2022/11/27 01:47:48;;;;;;;;;9.25;9.25;;;;;8.79;69.49;102032.78;6187170;23;45402;-75
2022/11/27 01:50:20;;;;;;;;;11.75;9.75;;;;;8.92;69.53;102049.72;6160078;23;47516;-76
2022/11/27 01:52:50;;;;;;;;;10.75;9.50;;;;;8.91;69.38;102045.34;6160073;23;45190;-75
2022/11/27 01:55:30;;;;;;;;;8.25;7.00;;;;;8.82;69.37;102027.59;6159866;23;45445;-75
2022/11/27 01:58:26;;;;;;;;;12.75;10.50;;;;;8.90;69.33;102036.59;6186708;23;45250;-75
2022/11/27 02:00:52;;;;;;;;;8.25;6.25;;;;;8.88;69.39;102022.53;6155718;23;45447;-75
2022/11/27 02:03:17;;;;;;;;;13.75;12.25;;;;;8.92;69.27;102033.97;6186834;23;45268;-75
2022/11/27 02:05:43;;;;;;;;;11.50;10.50;;;;;8.88;69.33;102022.53;6187528;23;45543;-75
2022/11/27 02:08:14;;;;;;;;;12.00;10.00;;;;;8.97;69.13;102030.59;6186823;23;45237;-75
2022/11/27 02:10:52;;;;;;;;;11.50;9.50;;;;;8.97;69.07;102032.34;6159545;23;46371;-75
2022/11/27 02:13:41;;;;;;;;;11.25;10.00;;;;;8.89;68.99;102024.28;6185510;23;45311;-75
2022/11/27 02:16:28;;;;;;;;;10.00;9.50;;;;;8.98;68.96;102031.50;6185926;23;45245;-75
2022/11/27 02:19:06;;;;;;;;;11.00;10.00;;;;;8.78;68.85;101995.16;6186623;23;45128;-75
2022/11/27 02:21:45;;;;;;;;;10.50;10.00;;;;;8.96;69.19;102007.81;6186169;23;45385;-75
2022/11/27 02:25:01;;;;;;;;;11.50;10.00;;;;;8.97;68.86;102011.34;6186505;23;45359;-75
2022/11/27 02:27:33;;;;;;;;;9.75;9.75;;;;;8.93;68.94;102010.38;6036570;23;45332;-75
2022/11/27 02:29:59;;;;;;;;;10.00;8.50;;;;;8.95;69.03;102019.16;6012191;23;46072;-75
2022/11/27 02:32:36;;;;;;;;;12.50;11.00;;;;;8.82;69.02;101991.75;6086707;23;48457;-75
2022/11/27 02:35:18;;;;;;;;;12.75;10.00;;;;;8.95;69.15;102016.53;6186422;23;45172;-75
2022/11/27 02:37:59;;;;;;;;;12.00;10.25;;;;;8.92;69.03;102005.97;6186208;23;45344;-75
2022/11/27 02:40:38;;;;;;;;;11.25;10.25;;;;;9.00;68.83;102019.28;6186587;23;45210;-75
2022/11/27 02:43:10;;;;;;;;;8.00;8.00;;;;;8.99;68.99;102015.78;6185883;23;45355;-75
2022/11/27 02:45:49;;;;;;;;;10.75;8.25;;;;;8.98;68.95;102000.88;6186650;23;45197;-75
2022/11/27 02:48:20;;;;;;;;;8.00;8.00;;;;;8.97;69.01;101996.47;6186300;23;45303;-75
2022/11/27 02:50:47;;;;;;;;;12.25;8.50;;;;;8.87;68.87;101964.69;6186211;23;45111;-75
2022/11/27 02:53:20;;;;;;;;;8.75;8.00;;;;;8.90;68.92;101956.88;6185900;23;45421;-75
2022/11/27 02:55:48;;;;;;;;;11.25;11.25;;;;;9.00;68.73;101975.50;6186538;23;45284;-75
2022/11/27 02:58:19;;;;;;;;;10.75;8.50;;;;;8.94;68.85;101964.00;6186095;23;45288;-75
2022/11/27 03:00:46;;;;;;;;;11.50;10.00;;;;;9.04;68.82;101976.50;6186520;23;45338;-75
2022/11/27 03:03:17;;;;;;;;;10.25;10.25;;;;;8.95;68.80;101968.38;6185663;23;46588;-75
2022/11/27 03:05:46;;;;;;;;;8.75;6.25;;;;;8.91;68.51;101956.06;6158727;23;45205;-75
2022/11/27 03:08:40;;;;;;;;;11.25;9.00;;;;;8.92;68.72;101956.06;6185958;23;45256;-75
2022/11/27 03:11:09;;;;;;;;;11.00;10.00;;;;;8.91;68.60;101959.56;6145559;23;46171;-75
2022/11/27 03:13:39;;;;;;;;;12.25;10.75;;;;;8.90;68.76;101949.91;6185746;23;46343;-75
2022/11/27 03:16:24;;;;;;;;;12.00;10.00;;;;;8.96;68.82;101952.69;6183246;23;45435;-75
2022/11/27 03:18:58;;;;;;;;;9.75;9.75;;;;;8.93;68.75;101952.63;6158962;23;45217;-75
2022/11/27 03:21:39;;;;;;;;;9.25;8.50;;;;;8.93;69.02;101949.09;6158776;23;45214;-75
2022/11/27 03:24:07;;;;;;;;;11.50;9.50;;;;;8.96;69.02;101946.53;6185961;23;46039;-75
2022/11/27 03:26:33;;;;;;;;;11.00;10.00;;;;;8.97;68.92;101940.44;6184601;23;45306;-75
2022/11/27 03:29:01;;;;;;;;;9.50;8.25;;;;;8.94;68.50;101921.97;6186991;23;45174;-75
2022/11/27 03:31:27;;;;;;;;;13.00;10.75;;;;;8.98;68.94;101922.09;6185007;23;45436;-75
2022/11/27 03:33:53;;;;;;;;;13.25;10.00;;;;;8.97;68.46;101917.66;6187062;23;46138;-75
2022/11/27 03:36:21;;;;;;;;;9.00;9.00;;;;;8.99;68.61;101922.97;6159789;23;45397;-75
2022/11/27 03:38:49;;;;;;;;;9.25;7.50;;;;;9.00;68.83;101906.34;6160719;23;45300;-75
2022/11/27 03:41:39;;;;;;;;;9.25;8.00;;;;;8.87;68.65;101886.81;6187095;23;45246;-75
2022/11/27 03:44:27;;;;;;;;;9.50;8.25;;;;;9.03;68.82;101916.91;6186810;23;45427;-75
2022/11/27 03:47:17;;;;;;;;;12.75;12.00;;;;;8.97;68.48;101907.16;6160055;23;45194;-75
2022/11/27 03:49:54;;;;;;;;;9.25;7.00;;;;;9.02;68.76;101904.66;6159942;23;45355;-75
2022/11/27 03:52:44;;;;;;;;;9.50;8.50;;;;;9.02;68.49;101904.66;6186724;23;45346;-75
2022/11/27 03:55:58;;;;;;;;;13.00;9.25;;;;;9.02;68.82;101902.91;6187184;23;45631;-75
2022/11/27 03:58:29;;;;;;;;;8.75;6.25;;;;;9.04;68.59;101914.34;6154059;23;45219;-75
2022/11/27 04:00:58;;;;;;;;;11.25;8.75;;;;;8.99;68.75;101907.22;6160792;23;45408;-75
2022/11/27 04:03:29;;;;;;;;;11.50;10.75;;;;;9.05;68.81;101912.59;6186806;23;45320;-75
2022/11/27 04:05:56;;;;;;;;;11.50;9.75;;;;;8.96;68.42;101900.16;6187046;23;45516;-76
2022/11/27 04:08:21;;;;;;;;;11.25;8.25;;;;;9.05;68.30;101904.69;6187287;23;45358;-75
2022/11/27 04:10:47;;;;;;;;;11.00;9.25;;;;;9.06;68.47;101911.72;6187211;23;45252;-75
2022/11/27 04:13:13;;;;;;;;;5.75;5.75;;;;;9.02;68.82;101909.91;6186496;23;45151;-75
2022/11/27 04:15:39;;;;;;;;;9.25;7.50;;;;;8.96;68.73;101904.53;6186824;23;46134;-75
2022/11/27 04:18:05;;;;;;;;;7.75;5.00;;;;;8.93;68.66;101893.97;6187192;23;45090;-75
2022/11/27 04:20:30;;;;;;;;;11.00;10.50;;;;;8.96;68.53;101907.16;6187358;23;45248;-75
2022/11/27 04:22:55;;;;;;;;;11.25;10.75;;;;;9.00;68.47;101903.72;6187372;23;45142;-75
2022/11/27 04:25:21;;;;;;;;;10.75;8.75;;;;;8.94;68.69;101891.34;6187212;23;45531;-75
2022/11/27 04:27:46;;;;;;;;;8.00;7.00;;;;;8.87;68.82;101886.81;6186949;23;45331;-75
2022/11/27 04:30:13;;;;;;;;;11.00;8.75;;;;;8.89;69.12;101874.59;6187267;23;45287;-75
2022/11/27 04:32:39;;;;;;;;;13.50;10.50;;;;;9.00;68.93;101887.97;6159737;23;45360;-75
2022/11/27 04:35:04;;;;;;;;;10.00;10.00;;;;;8.90;68.88;101868.50;6186419;23;45497;-75
2022/11/27 04:37:30;;;;;;;;;8.25;7.00;;;;;8.96;68.91;101859.88;6186264;23;45450;-75
2022/11/27 04:39:55;;;;;;;;;9.00;6.50;;;;;9.07;69.26;101882.00;6187131;23;45239;-75
2022/11/27 04:42:21;;;;;;;;;11.00;9.50;;;;;9.01;69.38;101858.22;6186651;23;45472;-75
2022/11/27 04:44:46;;;;;;;;;9.50;9.50;;;;;9.10;69.31;101862.78;6159881;23;48137;-76
2022/11/27 04:47:11;;;;;;;;;9.50;9.00;;;;;9.01;69.23;101842.47;6160264;23;45162;-75
2022/11/27 04:49:37;;;;;;;;;9.25;7.25;;;;;9.00;69.30;101832.81;6187214;23;45134;-76
2022/11/27 04:52:03;;;;;;;;;10.00;8.50;;;;;9.12;69.16;101853.19;6186747;23;45181;-76
2022/11/27 04:54:28;;;;;;;;;12.25;11.50;;;;;9.04;69.25;101839.91;6184765;23;47402;-76
2022/11/27 04:56:54;;;;;;;;;14.75;10.25;;;;;8.99;69.38;101823.16;6186788;23;45210;-76
2022/11/27 04:59:20;;;;;;;;;12.50;11.50;;;;;9.01;69.30;101827.59;6186831;23;45211;-75
2022/11/27 05:01:45;;;;;;;;;13.00;10.75;;;;;9.07;69.50;101832.09;6160077;23;45123;-76
2022/11/27 05:04:10;;;;;;;;;11.75;9.00;;;;;9.08;69.23;101840.84;6159608;23;47208;-76
2022/11/27 05:06:36;;;;;;;;;9.00;8.75;;;;;9.09;69.33;101833.00;6159923;23;45258;-75
2022/11/27 05:09:01;;;;;;;;;10.50;9.00;;;;;9.00;69.15;101815.28;6160080;23;45287;-76
2022/11/27 05:11:29;;;;;;;;;8.50;8.00;;;;;8.99;69.12;101810.91;6186545;23;45584;-75
2022/11/27 05:16:46;;;;;;;;;10.00;9.00;;;;;9.03;69.20;101818.00;6186561;23;45378;-75
2022/11/27 05:19:13;;;;;;;;;9.75;8.00;;;;;9.01;69.04;101819.72;6187062;23;45393;-76
2022/11/27 05:21:39;;;;;;;;;8.75;8.75;;;;;8.99;69.32;101820.53;6186697;23;45307;-76
2022/11/27 05:24:05;;;;;;;;;8.75;8.75;;;;;9.01;69.62;101824.09;6159574;23;47035;-76
2022/11/27 05:26:31;;;;;;;;;9.50;9.50;;;;;8.96;69.60;101820.47;6186815;23;45369;-76
2022/11/27 05:28:56;;;;;;;;;10.00;10.00;;;;;8.95;69.51;101819.56;6186621;23;45272;-75
2022/11/27 05:31:22;;;;;;;;;10.75;8.25;;;;;8.99;69.57;101831.91;6159285;23;45771;-76
2022/11/27 05:33:47;;;;;;;;;8.00;7.00;;;;;8.88;69.53;101817.69;6186450;23;45417;-76
2022/11/27 05:36:13;;;;;;;;;11.00;10.00;;;;;8.93;69.43;101817.78;6186189;23;45311;-76
2022/11/27 05:38:39;;;;;;;;;11.00;9.50;;;;;8.93;69.34;101810.81;6160000;23;45263;-75
2022/11/27 05:41:04;;;;;;;;;11.50;10.25;;;;;9.03;69.68;101822.34;6186569;23;45162;-75
2022/11/27 05:43:30;;;;;;;;;9.75;7.25;;;;;9.04;69.48;101814.50;6186392;23;45379;-76
2022/11/27 05:45:55;;;;;;;;;10.75;8.75;;;;;9.00;69.74;101798.66;6186809;23;45126;-76
2022/11/27 05:48:20;;;;;;;;;12.00;9.25;;;;;9.00;69.35;101807.41;6159617;23;45179;-76
2022/11/27 05:50:46;;;;;;;;;11.75;9.25;;;;;9.01;69.57;101810.97;6159678;23;45285;-75
2022/11/27 05:53:11;;;;;;;;;7.75;6.75;;;;;9.08;69.38;101817.19;6186715;23;46021;-75
2022/11/27 05:55:37;;;;;;;;;10.25;10.25;;;;;9.02;69.67;101804.84;6159728;23;45418;-76
2022/11/27 05:58:02;;;;;;;;;11.75;9.75;;;;;8.95;69.45;101809.06;6159636;23;45348;-75
2022/11/27 06:00:27;;;;;;;;;14.25;13.75;;;;;8.96;69.50;101800.34;6159736;23;45504;-76
2022/11/27 06:02:54;;;;;;;;;14.75;10.00;;;;;8.98;69.23;101800.34;6159232;23;48255;-75
2022/11/27 06:05:19;;;;;;;;;12.25;10.00;;;;;8.91;69.60;101786.25;6159368;23;45444;-75
2022/11/27 06:07:44;;;;;;;;;11.75;10.50;;;;;8.96;69.49;101796.84;6186830;23;45338;-75
2022/11/27 06:10:10;;;;;;;;;14.25;10.50;;;;;8.96;69.96;101799.47;6186382;23;45240;-76
2022/11/27 06:12:35;;;;;;;;;15.00;12.00;;;;;8.99;69.40;101800.41;6159094;23;46685;-76
2022/11/27 06:15:00;;;;;;;;;12.00;11.25;;;;;8.93;69.26;101795.03;6159278;23;45377;-75
2022/11/27 06:17:26;;;;;;;;;7.00;6.25;;;;;8.98;69.82;101793.41;6186597;23;45370;-76
2022/11/27 06:19:51;;;;;;;;;9.50;9.50;;;;;8.93;69.69;101784.53;6187148;23;45202;-75
2022/11/27 06:22:17;;;;;;;;;9.25;9.25;;;;;8.97;69.58;101783.72;6186642;23;45431;-75
2022/11/27 06:24:42;;;;;;;;;12.50;9.75;;;;;9.03;70.09;101781.25;6184625;23;45237;-76
2022/11/27 06:27:08;;;;;;;;;11.25;10.25;;;;;9.02;69.91;101789.06;6186451;23;45442;-75
2022/11/27 06:29:33;;;;;;;;;10.00;8.75;;;;;9.01;69.67;101777.69;6186641;23;45434;-76
2022/11/27 06:31:58;;;;;;;;;7.50;7.50;;;;;8.98;69.67;101751.38;6159320;23;46114;-75
2022/11/27 06:34:24;;;;;;;;;10.00;7.25;;;;;9.07;69.70;101773.41;6186628;23;45436;-75
2022/11/27 06:36:50;;;;;;;;;9.00;8.00;;;;;9.06;69.90;101762.00;6186397;23;45332;-75
2022/11/27 06:39:15;;;;;;;;;10.75;9.00;;;;;9.03;69.98;101747.09;6159320;23;45479;-75
2022/11/27 06:41:42;;;;;;;;;15.25;10.75;;;;;9.13;69.88;101765.63;6184383;23;47219;-75
2022/11/27 06:44:09;;;;;;;;;8.00;8.00;;;;;9.03;69.59;101754.97;6159054;23;45501;-76
2022/11/27 06:46:35;;;;;;;;;14.00;10.00;;;;;9.13;69.68;101758.63;6159005;23;45758;-76
2022/11/27 06:49:00;;;;;;;;;11.50;10.25;;;;;9.11;69.81;101749.84;6183380;23;45404;-76
2022/11/27 06:51:29;;;;;;;;;9.75;9.00;;;;;9.08;69.77;101741.03;6158962;23;46800;-75
2022/11/27 06:53:55;;;;;;;;;9.50;7.00;;;;;9.13;69.56;101755.13;6159105;23;45222;-77
2022/11/27 06:56:25;;;;;;;;;8.00;7.50;;;;;9.10;69.63;101748.06;6186357;23;45173;-77
2022/11/27 06:58:53;;;;;;;;;10.50;9.50;;;;;9.03;69.65;101740.94;6158524;23;45454;-77
2022/11/27 07:01:19;;;;;;;;;10.00;10.00;;;;;9.09;69.58;101751.56;6186642;23;45285;-77
2022/11/27 07:03:44;;;;;;;;;9.50;9.25;;;;;9.01;69.62;101746.19;6160459;23;45130;-77
2022/11/27 07:06:13;;;;;;;;;12.25;11.00;;;;;8.92;69.48;101724.97;6187164;23;45145;-77
2022/11/27 07:08:42;;;;;;;;;11.00;9.00;;;;;8.99;69.59;101744.38;6187119;23;45327;-77
2022/11/27 07:11:11;;;;;;;;;9.25;9.25;;;;;8.96;69.71;101731.19;6160048;23;46996;-77
2022/11/27 07:13:37;;;;;;;;;10.00;9.00;;;;;8.88;69.91;101712.66;6159630;23;45397;-78
2022/11/27 07:16:06;;;;;;;;;9.50;9.00;;;;;9.02;69.76;101753.19;6160218;23;45637;-77
2022/11/27 07:18:43;;;;;;;;;8.75;8.75;;;;;9.10;69.58;101760.34;6160302;23;45209;-76
2022/11/27 07:21:09;;;;;;;;;10.00;9.00;;;;;9.05;69.81;101754.97;6187339;23;45461;-76
2022/11/27 07:23:35;;;;;;;;;9.75;9.00;;;;;9.03;70.17;101752.34;6187396;23;45181;-76
2022/11/27 07:26:16;;;;;;;;;10.25;10.00;;;;;9.13;69.73;101757.75;6186590;23;45249;-76
2022/11/27 07:28:45;;;;;;;;;8.50;8.50;;;;;9.01;69.72;101730.41;6186955;23;45248;-76
2022/11/27 07:31:12;;;;;;;;;9.25;9.25;;;;;9.19;70.12;101755.22;6184816;23;45774;-76
2022/11/27 07:33:40;;;;;;;;;11.75;9.50;;;;;9.24;69.95;101761.47;6187089;23;45386;-77
2022/11/27 07:36:12;;;;;;;;;11.75;8.00;;;;;9.17;70.20;101736.84;6186703;23;45214;-76
2022/11/27 07:38:37;;;;;;;;;13.50;12.50;;;;;9.21;69.79;101737.75;6186831;23;45327;-77
2022/11/27 07:41:04;;;;;;;;;10.00;9.25;;;;;9.17;70.14;101731.56;6159873;23;48038;-77
2022/11/27 07:43:32;;;;;;;;;9.25;9.25;;;;;9.18;69.94;101737.72;6186815;23;45330;-76
2022/11/27 07:45:58;;;;;;;;;10.75;9.75;;;;;9.23;69.81;101741.31;6160274;23;45215;-76
2022/11/27 07:48:23;;;;;;;;;11.00;9.00;;;;;9.23;69.89;101747.44;6159867;23;45428;-76
2022/11/27 07:50:48;;;;;;;;;15.75;11.50;;;;;9.14;70.31;101736.78;6159583;23;47090;-77
2022/11/27 07:53:14;;;;;;;;;10.25;9.00;;;;;9.19;70.16;101750.84;6159799;23;45238;-76
2022/11/27 07:55:40;;;;;;;;;9.00;6.00;;;;;9.22;70.26;101753.56;6187200;23;45262;-77
2022/11/27 07:58:07;;;;;;;;;12.75;10.00;;;;;9.13;70.32;101736.75;6186448;23;45245;-76
2022/11/27 08:00:33;;;;;;;;;10.00;10.00;;;;;9.16;70.15;101745.56;6185769;23;45472;-77
2022/11/27 08:02:59;;;;;;;;;11.25;9.00;;;;;9.26;70.56;101757.13;6187015;23;45295;-77
2022/11/27 08:05:27;;;;;;;;;15.25;11.50;;;;;9.25;70.23;101752.75;6160158;23;45357;-76
2022/11/27 08:07:52;;;;;;;;;11.00;10.50;;;;;9.31;70.62;101758.09;6160217;23;45531;-76
2022/11/27 08:10:20;;;;;;;;;8.75;8.75;;;;;9.22;70.57;101735.19;6159209;23;47714;-77
2022/11/27 08:12:46;;;;;;;;;10.75;9.25;;;;;9.30;70.44;101742.28;6185492;23;45266;-77
2022/11/27 08:15:12;;;;;;;;;12.00;10.75;;;;;9.26;70.29;101736.97;6186960;23;45241;-76
2022/11/27 08:17:38;;;;;;;;;11.50;11.50;;;;;9.29;70.04;101736.16;6159651;23;45322;-76
2022/11/27 08:20:05;;;;;;;;;10.75;10.50;;;;;9.28;70.23;101735.28;6186455;23;46752;-76
2022/11/27 08:22:37;;;;;;;;;11.00;11.00;;;;;9.22;70.33;101723.75;6159865;23;45450;-76
2022/11/27 08:25:03;;;;;;;;;12.50;11.50;;;;;9.20;70.28;101721.13;6186485;23;45319;-76
2022/11/27 08:27:31;;;;;;;;;13.50;10.50;;;;;9.22;70.26;101706.28;6186209;23;45292;-77
2022/11/27 08:29:56;;;;;;;;;13.50;12.25;;;;;9.21;70.75;101693.09;6184686;23;47385;-77
2022/11/27 08:32:22;;;;;;;;;11.75;10.75;;;;;9.20;70.61;101694.84;6186226;23;45206;-77
2022/11/27 08:34:47;;;;;;;;;9.00;9.00;;;;;9.26;70.51;101708.09;6186692;23;45462;-77
2022/11/27 08:37:12;;;;;;;;;9.25;9.00;;;;;9.24;70.54;101701.91;6158684;23;45191;-77
2022/11/27 08:39:38;;;;;;;;;12.25;11.75;;;;;9.26;70.75;101702.81;6186521;23;45323;-76
2022/11/27 08:42:03;;;;;;;;;15.50;11.75;;;;;9.22;70.37;101690.50;6158959;23;45634;-77
2022/11/27 08:44:29;;;;;;;;;13.00;13.00;;;;;9.24;70.46;101693.16;6184846;23;45283;-77
2022/11/27 08:46:54;;;;;;;;;13.50;13.50;;;;;9.20;70.70;101686.97;6187236;23;45446;-77
2022/11/27 08:49:19;;;;;;;;;13.00;10.25;;;;;9.12;70.60;101685.94;6186519;23;45234;-77
2022/11/27 08:51:45;;;;;;;;;13.25;12.25;;;;;9.23;70.76;101688.75;6185897;23;45345;-76
2022/11/27 08:54:10;;;;;;;;;10.00;9.00;;;;;9.15;70.76;101667.63;6187259;23;45176;-76
2022/11/27 08:56:36;;;;;;;;;21.50;15.75;;;;;9.37;70.53;101681.09;6159803;23;45211;-76
2022/11/27 08:59:02;;;;;;;;;12.50;11.50;;;;;9.38;70.96;101677.59;6186494;23;46030;-77
2022/11/27 09:01:30;;;;;;;;;10.50;10.50;;;;;9.40;70.67;101666.25;6186933;23;45244;-77
2022/11/27 09:03:56;;;;;;;;;11.25;11.25;;;;;9.35;70.76;101649.53;6160234;23;45431;-75
2022/11/27 09:06:28;;;;;;;;;11.25;11.25;;;;;9.47;70.92;101652.38;6184701;23;45139;-76
2022/11/27 09:09:01;;;;;;;;;10.75;9.50;;;;;9.46;70.52;101647.97;6159831;23;46948;-76
2022/11/27 09:11:28;;;;;;;;;11.75;11.75;;;;;9.43;70.97;101647.91;6159569;23;45209;-76
2022/11/27 09:13:54;;;;;;;;;11.50;11.25;;;;;9.38;70.94;101628.59;6186467;23;45304;-76
2022/11/27 09:16:21;;;;;;;;;11.75;11.50;;;;;9.45;70.42;101648.81;6186541;23;45426;-77
2022/11/27 09:18:49;;;;;;;;;14.25;13.00;;;;;9.46;70.53;101666.38;6186786;23;45303;-76
2022/11/27 09:21:16;;;;;;;;;11.75;11.75;;;;;9.39;70.75;101624.19;6159413;23;45207;-76
2022/11/27 09:23:42;;;;;;;;;11.50;10.75;;;;;9.40;70.23;101625.97;6186548;23;45424;-76
2022/11/27 09:26:10;;;;;;;;;12.25;11.75;;;;;9.47;70.80;101644.47;6159640;23;45404;-76
2022/11/27 09:28:37;;;;;;;;;10.50;10.50;;;;;9.55;70.48;101649.84;6184625;23;48322;-76
2022/11/27 09:31:04;;;;;;;;;18.50;13.00;;;;;9.53;70.25;101632.28;6187160;23;45210;-75
2022/11/27 09:33:31;;;;;;;;;11.25;10.75;;;;;9.57;70.63;101626.19;6187677;23;45102;-76
2022/11/27 09:35:57;;;;;;;;;13.25;10.50;;;;;9.53;70.49;101620.03;6159134;23;45500;-76
2022/11/27 09:38:23;;;;;;;;;9.75;7.25;;;;;9.60;70.20;101621.03;6186653;23;45848;-76
2022/11/27 09:40:50;;;;;;;;;10.75;9.75;;;;;9.67;70.31;101618.47;6159993;23;45454;-76
2022/11/27 09:43:20;;;;;;;;;11.50;10.25;;;;;9.63;70.09;101594.75;6187058;23;45352;-77
2022/11/27 09:45:53;;;;;;;;;12.50;11.50;;;;;9.61;69.80;101576.34;6187199;23;45165;-77
2022/11/27 09:48:32;;;;;;;;;10.75;9.00;;;;;9.61;69.70;101573.69;6184296;23;47330;-76
2022/11/27 09:51:00;;;;;;;;;11.00;9.00;;;;;9.70;69.63;101592.25;6186255;23;45403;-77
2022/11/27 09:53:48;;;;;;;;;10.75;10.00;;;;;9.69;69.53;101577.31;6186051;23;45413;-78
2022/11/27 09:56:16;;;;;;;;;10.25;7.25;;;;;9.83;69.65;101588.00;6160443;23;45414;-77
2022/11/27 09:58:53;;;;;;;;;10.50;10.50;;;;;9.80;69.45;101581.84;6158686;23;48026;-78
2022/11/27 10:01:28;;;;;;;;;8.75;7.25;;;;;9.91;69.16;101588.97;6186116;23;45390;-76
2022/11/27 10:03:53;;;;;;;;;11.50;10.25;;;;;9.88;69.04;101595.97;6184127;23;45321;-76
2022/11/27 10:06:30;;;;;;;;;16.25;10.00;;;;;9.98;68.98;101610.13;6185478;23;45350;-76
2022/11/27 10:09:13;;;;;;;;;11.00;10.50;;;;;10.00;69.10;101611.91;6185969;23;45503;-77
2022/11/27 10:11:50;;;;;;;;;11.25;9.25;;;;;10.03;68.81;101598.78;6185622;23;45378;-76
2022/11/27 10:14:24;;;;;;;;;11.75;10.50;;;;;10.05;68.87;101604.97;6186319;23;45303;-76
2022/11/27 10:16:58;;;;;;;;;5.00;3.25;;;;;10.06;68.33;101598.84;6186339;23;45570;-76
2022/11/27 10:19:41;;;;;;;;;12.00;10.50;;;;;10.02;68.67;101599.63;6186206;23;46283;-76
2022/11/27 10:23:03;;;;;;;;;13.25;11.75;;;;;10.10;68.69;101607.63;6158983;23;45498;-77
2022/11/27 10:25:37;;;;;;;;;14.25;11.00;;;;;10.15;68.58;101608.56;6104602;23;45218;-76
2022/11/27 10:28:27;;;;;;;;;12.50;10.50;;;;;10.19;68.45;101599.88;6158399;23;45315;-76
2022/11/27 10:31:12;;;;;;;;;12.25;11.25;;;;;10.22;68.39;101594.63;6158599;23;48107;-78
2022/11/27 10:33:44;;;;;;;;;11.25;9.25;;;;;10.15;68.96;101577.00;6159720;23;45810;-78
2022/11/27 10:36:45;;;;;;;;;14.75;14.00;;;;;10.16;68.71;101569.13;6184959;23;45167;-78
2022/11/27 10:39:41;;;;;;;;;11.50;10.25;;;;;10.27;69.26;101564.03;6187349;23;45321;-78
2022/11/27 10:42:20;;;;;;;;;12.50;10.25;;;;;10.37;69.01;101584.31;6171963;23;47483;-79
2022/11/27 10:45:19;;;;;;;;;13.25;11.25;;;;;10.40;68.78;101578.19;6159483;23;45681;-80
2022/11/27 10:47:47;;;;;;;;;13.00;13.00;;;;;10.44;68.44;101576.47;6186024;23;45283;-77
2022/11/27 10:50:15;;;;;;;;;10.25;10.00;;;;;10.46;68.16;101565.09;6159159;23;45536;-79
2022/11/27 10:52:59;;;;;;;;;10.50;9.25;;;;;10.54;68.35;101565.19;6186284;23;45221;-77
2022/11/27 10:55:51;;;;;;;;;11.00;9.50;;;;;10.60;68.15;101567.84;6159255;23;45639;-78
2022/11/27 10:58:40;;;;;;;;;10.00;8.25;;;;;10.55;68.39;101556.41;6116558;23;45652;-78
2022/11/27 11:01:11;;;;;;;;;12.25;12.25;;;;;10.47;67.86;101540.53;6185969;23;45305;-78
2022/11/27 11:03:37;;;;;;;;;13.50;12.25;;;;;10.53;67.79;101543.22;6185762;23;45329;-77
2022/11/27 11:06:08;;;;;;;;;7.50;7.50;;;;;10.60;67.68;101562.59;6185642;23;45204;-77
2022/11/27 11:08:35;;;;;;;;;11.00;9.75;;;;;10.53;67.78;101550.22;6185904;23;45458;-76
2022/11/27 11:11:02;;;;;;;;;10.25;10.00;;;;;10.60;67.51;101559.94;6157087;23;45471;-76
2022/11/27 11:13:40;;;;;;;;;11.00;9.75;;;;;10.47;67.95;101516.81;6180251;23;45392;-79
2022/11/27 11:16:17;;;;;;;;;12.00;12.00;;;;;10.60;67.64;101536.25;6184502;23;45288;-83
2022/11/27 11:18:53;;;;;;;;;12.75;12.25;;;;;10.56;67.81;101522.19;6184262;23;45454;-84
2022/11/27 11:21:31;;;;;;;;;12.25;11.25;;;;;10.59;67.82;101522.22;6156823;23;45363;-82
2022/11/27 11:23:59;;;;;;;;;14.25;11.25;;;;;10.61;68.09;101506.41;6185011;23;46164;-80
2022/11/27 11:26:28;;;;;;;;;16.00;14.75;;;;;10.48;67.84;101487.03;6158116;23;45797;-80
2022/11/27 11:28:57;;;;;;;;;16.00;14.00;;;;;10.50;68.08;101489.66;6184531;23;45405;-81
2022/11/27 11:31:31;;;;;;;;;14.75;12.75;;;;;10.57;67.89;101488.84;6184214;23;45165;-81
2022/11/27 11:34:14;;;;;;;;;17.00;13.25;;;;;10.57;67.97;101478.31;6156871;23;47778;-82
2022/11/27 11:36:41;;;;;;;;;12.00;12.00;;;;;10.53;67.84;101469.53;6184406;23;45446;-81
2022/11/27 11:39:16;;;;;;;;;13.75;12.25;;;;;10.66;68.07;101486.28;6158042;23;45365;-77